Terminal Aerodrome Forecast
Issued by NWS Louisville, KY

Home | Current Version | Previous Version | Text Only | Print | Product List | Glossary On
Versions: 1 2 3 4 5 6 7 8 9 10 11 12
000
FTUS43 KLMK 261400 AAA
TAFBWG
TAF AMD
KBWG 261441Z 2615/2712 35003KT P6SM SCT080
     FM261600 35008KT P6SM BKN050
     FM262000 34010KT P6SM VCSH BKN035
     FM270200 34010KT P6SM OVC020=

USA.gov is the U.S. government's official web portal to all federal, state and local government web resources and services.